Time;durP1;ratioP1;P1;durP2;ratioP2;P2;SDS_P1;SDS_P2;PMS_P1;PMS_P2;Temp;Humidity;BMP_temperature;BMP_pressure;BME280_temperature;BME280_humidity;BME280_pressure;Samples;Min_cycle;Max_cycle;Signal;HPM_P1;HPM_P2
2023/04/08 00:00:13;;;;;;;59.60;15.63;;;8.80;99.90;;;;;;5042391;28;20033;-73
2023/04/08 00:02:39;;;;;;;51.80;15.50;;;8.80;99.90;;;;;;5044147;28;20102;-73
2023/04/08 00:05:05;;;;;;;52.73;12.97;;;8.80;99.90;;;;;;5042356;28;20522;-73
2023/04/08 00:07:31;;;;;;;49.97;13.20;;;8.80;99.90;;;;;;5034505;28;20079;-73
2023/04/08 00:09:57;;;;;;;54.37;14.77;;;8.80;99.90;;;;;;5040339;28;20026;-73
2023/04/08 00:12:22;;;;;;;29.30;14.47;;;8.70;99.90;;;;;;5035657;28;20028;-73
2023/04/08 00:14:48;;;;;;;86.87;17.63;;;8.60;99.90;;;;;;5042983;28;20022;-72
2023/04/08 00:17:13;;;;;;;50.93;13.57;;;8.70;99.90;;;;;;5040119;28;20108;-73
2023/04/08 00:19:39;;;;;;;61.07;13.30;;;8.70;99.90;;;;;;5033370;28;20105;-73
2023/04/08 00:22:05;;;;;;;43.20;12.87;;;8.70;99.90;;;;;;5041286;28;20032;-73
2023/04/08 00:24:31;;;;;;;64.70;14.10;;;8.70;99.90;;;;;;5042675;28;20163;-73
2023/04/08 00:26:57;;;;;;;87.10;15.67;;;8.60;99.90;;;;;;5041234;28;20108;-73
2023/04/08 00:29:22;;;;;;;52.77;13.40;;;8.70;99.90;;;;;;5042451;28;20037;-73
2023/04/08 00:31:48;;;;;;;54.90;12.63;;;8.60;99.90;;;;;;5038097;28;20022;-73
2023/04/08 00:34:13;;;;;;;72.80;14.27;;;8.60;99.90;;;;;;5032097;28;20109;-73
2023/04/08 00:36:39;;;;;;;72.80;14.83;;;8.60;99.90;;;;;;5031424;28;20089;-73
2023/04/08 00:39:05;;;;;;;59.13;14.97;;;8.50;99.90;;;;;;5031853;28;20052;-73
2023/04/08 00:41:33;;;;;;;55.10;14.00;;;8.50;99.90;;;;;;5030084;28;20021;-73
2023/04/08 00:43:59;;;;;;;54.37;11.83;;;8.50;99.90;;;;;;5031998;28;20072;-72
2023/04/08 00:46:25;;;;;;;47.00;12.83;;;8.50;99.90;;;;;;5031789;28;20017;-73
2023/04/08 00:48:51;;;;;;;28.30;12.30;;;8.40;99.90;;;;;;5031638;28;20025;-72
2023/04/08 00:51:17;;;;;;;44.10;11.53;;;8.40;99.90;;;;;;5030452;28;20049;-73
2023/04/08 00:53:43;;;;;;;40.27;13.47;;;8.30;99.90;;;;;;5031602;28;20146;-73
2023/04/08 00:56:09;;;;;;;67.13;13.37;;;8.30;99.90;;;;;;5036145;28;20530;-73
2023/04/08 00:58:35;;;;;;;60.03;13.20;;;8.20;99.90;;;;;;5050681;28;20029;-73
2023/04/08 01:01:13;;;;;;;40.30;14.40;;;8.20;99.90;;;;;;5032900;28;20367;-73
2023/04/08 01:03:56;;;;;;;33.93;11.27;;;8.10;99.90;;;;;;5043998;28;20045;-73
2023/04/08 01:06:37;;;;;;;33.93;13.63;;;8.10;99.90;;;;;;5031710;28;20048;-73
2023/04/08 01:09:04;;;;;;;34.07;12.80;;;8.10;99.90;;;;;;5031506;28;20041;-73
2023/04/08 01:11:33;;;;;;;34.50;12.13;;;8.00;99.90;;;;;;5030411;28;20505;-73
2023/04/08 01:14:05;;;;;;;54.93;13.93;;;8.00;99.90;;;;;;5035795;28;20478;-73
2023/04/08 01:16:31;;;;;;;40.00;12.93;;;8.00;99.90;;;;;;5040181;28;20025;-72
2023/04/08 01:18:57;;;;;;;41.57;12.33;;;7.90;99.90;;;;;;5032166;28;20048;-73
2023/04/08 01:21:23;;;;;;;31.87;13.77;;;7.90;99.90;;;;;;5043283;28;20036;-72
2023/04/08 01:24:10;;;;;;;31.13;12.00;;;7.90;99.90;;;;;;5037116;28;20021;-73
2023/04/08 01:26:36;;;;;;;38.50;11.20;;;7.90;99.90;;;;;;5039366;28;20136;-73
2023/04/08 01:29:02;;;;;;;27.27;13.20;;;7.80;99.90;;;;;;5050102;28;20467;-73
2023/04/08 01:31:28;;;;;;;31.37;11.23;;;7.80;99.90;;;;;;5045672;28;20029;-73
2023/04/08 01:33:55;;;;;;;19.90;11.73;;;7.80;99.90;;;;;;5030566;28;20047;-72
2023/04/08 01:36:22;;;;;;;15.37;10.53;;;7.70;99.90;;;;;;5030547;28;20095;-73
2023/04/08 01:38:49;;;;;;;19.43;11.83;;;7.70;99.90;;;;;;5030152;28;20390;-73
2023/04/08 01:41:17;;;;;;;18.50;11.60;;;7.70;99.90;;;;;;5036435;28;20143;-73
2023/04/08 01:43:44;;;;;;;16.87;11.53;;;7.70;99.90;;;;;;5037039;28;20013;-73
2023/04/08 01:46:11;;;;;;;15.43;11.13;;;7.60;99.90;;;;;;5040530;28;20474;-73
2023/04/08 01:48:37;;;;;;;14.87;10.67;;;7.60;99.90;;;;;;5038626;28;20029;-73
2023/04/08 01:51:04;;;;;;;16.60;10.57;;;7.60;99.90;;;;;;5038612;28;20083;-73
2023/04/08 01:53:30;;;;;;;15.47;11.07;;;7.60;99.90;;;;;;5049681;28;20029;-73
2023/04/08 01:56:01;;;;;;;19.53;10.13;;;7.50;99.90;;;;;;5045263;28;20048;-73
2023/04/08 01:58:32;;;;;;;16.83;10.37;;;7.50;99.90;;;;;;5049983;28;20025;-73
2023/04/08 02:00:58;;;;;;;17.27;10.53;;;7.50;99.90;;;;;;5046489;28;20025;-72
2023/04/08 02:03:26;;;;;;;24.30;10.57;;;7.40;99.90;;;;;;5039333;28;20041;-73
2023/04/08 02:05:51;;;;;;;21.63;9.13;;;7.40;99.90;;;;;;5043093;28;20493;-73
2023/04/08 02:08:17;;;;;;;15.87;9.27;;;7.40;99.90;;;;;;5040059;28;20026;-73
2023/04/08 02:10:42;;;;;;;14.67;8.97;;;7.30;99.90;;;;;;5035254;28;20474;-73
2023/04/08 02:13:08;;;;;;;11.83;10.10;;;7.30;99.90;;;;;;5047411;28;20029;-73
2023/04/08 02:15:36;;;;;;;11.47;10.27;;;7.30;99.90;;;;;;5035648;28;20474;-74
2023/04/08 02:18:12;;;;;;;11.83;9.97;;;7.20;99.90;;;;;;5035341;28;20036;-74
2023/04/08 02:20:44;;;;;;;11.77;9.47;;;7.10;99.90;;;;;;5046528;28;20048;-74
2023/04/08 02:23:18;;;;;;;10.83;9.53;;;7.10;99.90;;;;;;5029899;28;20040;-74
2023/04/08 02:25:45;;;;;;;11.50;9.43;;;7.10;99.90;;;;;;5031369;28;20049;-74
2023/04/08 02:28:12;;;;;;;13.07;10.20;;;7.00;99.90;;;;;;5042731;28;20025;-74
2023/04/08 02:30:42;;;;;;;13.47;10.60;;;7.00;99.90;;;;;;5046793;28;20017;-73
2023/04/08 02:33:10;;;;;;;13.73;11.23;;;7.00;99.90;;;;;;5072371;28;20021;-73
2023/04/08 02:35:37;;;;;;;11.03;9.33;;;7.00;99.90;;;;;;5049100;28;20582;-74
2023/04/08 02:38:03;;;;;;;12.73;10.23;;;6.90;99.90;;;;;;5035842;28;20029;-74
2023/04/08 02:40:31;;;;;;;11.77;10.23;;;6.90;99.90;;;;;;5038427;28;20029;-74
2023/04/08 02:42:58;;;;;;;12.10;10.33;;;6.80;99.90;;;;;;5050940;28;20512;-74
2023/04/08 02:45:30;;;;;;;11.60;10.40;;;6.80;99.90;;;;;;5034137;28;20037;-74
2023/04/08 02:47:58;;;;;;;10.97;9.47;;;6.80;99.90;;;;;;5034039;28;20025;-74
2023/04/08 02:50:24;;;;;;;13.83;10.17;;;6.70;99.90;;;;;;5033785;28;20025;-74
2023/04/08 02:52:50;;;;;;;12.20;9.90;;;6.70;99.90;;;;;;5033184;28;20025;-74
2023/04/08 02:55:15;;;;;;;10.67;9.57;;;6.60;99.90;;;;;;5033819;28;20036;-75
2023/04/08 02:57:42;;;;;;;12.37;9.10;;;6.60;99.90;;;;;;5033825;28;20045;-75
2023/04/08 03:00:09;;;;;;;9.97;8.57;;;6.50;99.90;;;;;;5034046;28;20033;-74
2023/04/08 03:02:35;;;;;;;12.07;10.23;;;6.40;99.90;;;;;;5033335;28;20426;-74
2023/04/08 03:05:01;;;;;;;14.67;11.23;;;6.40;99.90;;;;;;5032573;28;20026;-74
2023/04/08 03:07:26;;;;;;;11.80;9.57;;;6.30;99.90;;;;;;5032947;28;20383;-74
2023/04/08 03:09:54;;;;;;;13.87;10.93;;;6.30;99.90;;;;;;5033336;28;20057;-74
2023/04/08 03:12:20;;;;;;;11.37;10.17;;;6.20;99.90;;;;;;5033563;28;20446;-74
2023/04/08 03:14:49;;;;;;;12.90;10.70;;;6.20;99.90;;;;;;5033286;28;20025;-73
2023/04/08 03:17:15;;;;;;;13.00;10.93;;;6.10;99.90;;;;;;5033568;28;20033;-74
2023/04/08 03:19:41;;;;;;;12.00;10.40;;;6.10;99.90;;;;;;5032899;28;20029;-74
2023/04/08 03:22:08;;;;;;;12.53;10.03;;;6.10;99.90;;;;;;5032789;28;20364;-75
2023/04/08 03:24:34;;;;;;;11.73;10.03;;;6.10;99.90;;;;;;5039588;28;20025;-74
2023/04/08 03:27:00;;;;;;;14.30;10.13;;;6.10;99.90;;;;;;5044397;28;20086;-73
2023/04/08 03:29:25;;;;;;;12.27;9.73;;;6.00;99.90;;;;;;5041845;28;20029;-74
2023/04/08 03:31:51;;;;;;;10.90;9.23;;;6.00;99.90;;;;;;5042545;28;20047;-74
2023/04/08 03:34:17;;;;;;;11.53;9.33;;;5.90;99.90;;;;;;5047443;28;20114;-74
2023/04/08 03:36:43;;;;;;;12.50;9.77;;;5.90;99.90;;;;;;5043824;28;20025;-74
2023/04/08 03:39:09;;;;;;;11.37;9.43;;;5.90;99.90;;;;;;5037565;28;20532;-74
2023/04/08 03:41:35;;;;;;;12.20;10.07;;;5.90;99.90;;;;;;5045085;28;20021;-75
2023/04/08 03:44:01;;;;;;;12.03;10.77;;;5.80;99.90;;;;;;5051257;28;20120;-75
2023/04/08 03:46:26;;;;;;;11.33;10.10;;;5.80;99.90;;;;;;5043057;28;20079;-74
2023/04/08 03:48:52;;;;;;;12.47;10.40;;;5.80;99.90;;;;;;5030296;28;20033;-75
2023/04/08 03:51:17;;;;;;;12.73;11.37;;;5.70;99.90;;;;;;5029663;28;20036;-75
2023/04/08 03:53:43;;;;;;;12.10;10.50;;;5.70;99.90;;;;;;5036184;28;20036;-75
2023/04/08 03:56:08;;;;;;;11.73;9.20;;;5.60;99.90;;;;;;5037496;28;20113;-75
2023/04/08 03:58:34;;;;;;;12.00;10.30;;;5.60;99.90;;;;;;5042888;28;20036;-75
2023/04/08 04:00:59;;;;;;;10.47;9.10;;;5.50;99.90;;;;;;5049027;28;20033;-75
2023/04/08 04:03:25;;;;;;;12.77;10.53;;;5.50;99.90;;;;;;5044271;28;20425;-75
2023/04/08 04:05:51;;;;;;;10.07;8.87;;;5.50;99.90;;;;;;5070632;28;20036;-75
2023/04/08 04:08:17;;;;;;;11.70;9.47;;;5.40;99.90;;;;;;5047759;28;20390;-75
2023/04/08 04:10:42;;;;;;;12.63;10.20;;;5.40;99.90;;;;;;5039859;28;20116;-75
2023/04/08 04:13:08;;;;;;;12.93;11.10;;;5.40;99.90;;;;;;5048699;28;20108;-74
2023/04/08 04:15:38;;;;;;;11.57;9.93;;;5.30;99.90;;;;;;5049195;28;20029;-75
2023/04/08 04:18:04;;;;;;;11.80;9.70;;;5.30;99.90;;;;;;5048142;28;20068;-75
2023/04/08 04:20:29;;;;;;;11.57;10.37;;;5.30;99.90;;;;;;5038036;28;20479;-75
2023/04/08 04:22:55;;;;;;;12.17;10.40;;;5.20;99.90;;;;;;5034108;28;20109;-75
2023/04/08 04:25:21;;;;;;;12.63;11.13;;;5.20;99.90;;;;;;5032700;28;20390;-74
2023/04/08 04:27:46;;;;;;;13.40;10.97;;;5.20;99.90;;;;;;5029563;28;20053;-75
2023/04/08 04:30:14;;;;;;;16.60;12.43;;;5.20;99.90;;;;;;5037005;28;20021;-75
2023/04/08 04:32:41;;;;;;;14.93;11.07;;;5.10;99.90;;;;;;5040121;28;20017;-75
2023/04/08 04:35:10;;;;;;;15.00;12.90;;;5.10;99.90;;;;;;5039883;28;20025;-75
2023/04/08 04:37:36;;;;;;;16.03;12.63;;;5.10;99.90;;;;;;5049130;28;20105;-75
2023/04/08 04:40:03;;;;;;;15.03;11.90;;;5.10;99.90;;;;;;5050358;28;20706;-75
2023/04/08 04:42:29;;;;;;;16.07;12.73;;;5.00;99.90;;;;;;5049909;28;20493;-75
2023/04/08 04:44:55;;;;;;;15.77;13.57;;;5.00;99.90;;;;;;5050297;28;20021;-75
2023/04/08 04:47:20;;;;;;;17.57;13.50;;;5.00;99.90;;;;;;5050530;28;20466;-75
2023/04/08 04:49:46;;;;;;;16.27;13.63;;;5.00;99.90;;;;;;5048356;28;20442;-75
2023/04/08 04:52:11;;;;;;;18.40;15.03;;;4.90;99.90;;;;;;5043829;28;20028;-75
2023/04/08 04:54:37;;;;;;;18.43;14.93;;;4.90;99.90;;;;;;5050469;28;20102;-75
2023/04/08 04:57:03;;;;;;;16.93;13.93;;;4.90;99.90;;;;;;5051660;28;20230;-75
2023/04/08 04:59:28;;;;;;;18.40;14.63;;;4.90;99.90;;;;;;5049147;28;20021;-75
2023/04/08 05:01:56;;;;;;;18.67;14.97;;;4.90;99.90;;;;;;5050738;28;20032;-75
2023/04/08 05:04:22;;;;;;;17.20;13.70;;;4.80;99.90;;;;;;5031656;28;20071;-75
2023/04/08 05:06:48;;;;;;;15.13;12.80;;;4.90;99.90;;;;;;5043698;28;20029;-73
2023/04/08 05:09:14;;;;;;;17.20;13.77;;;4.80;99.90;;;;;;5032265;28;20045;-73
2023/04/08 05:11:40;;;;;;;15.23;13.00;;;4.80;99.90;;;;;;5030765;28;20022;-73
2023/04/08 05:14:06;;;;;;;16.63;13.50;;;4.80;99.90;;;;;;5031399;28;20030;-73
2023/04/08 05:16:32;;;;;;;16.43;13.13;;;4.80;99.90;;;;;;5030743;28;20029;-73
2023/04/08 05:18:57;;;;;;;15.23;13.10;;;4.80;99.90;;;;;;5044165;28;20421;-73
2023/04/08 05:21:23;;;;;;;18.30;13.73;;;4.70;99.90;;;;;;5031080;28;20029;-73
2023/04/08 05:23:51;;;;;;;16.67;13.33;;;4.70;99.90;;;;;;5030587;28;20017;-72
2023/04/08 05:26:23;;;;;;;18.90;14.23;;;4.70;99.90;;;;;;5029313;28;20056;-73
2023/04/08 05:28:50;;;;;;;16.40;14.03;;;4.70;99.90;;;;;;5017805;28;20532;-73
2023/04/08 05:31:16;;;;;;;16.97;14.33;;;4.70;99.90;;;;;;5042570;28;20100;-73
2023/04/08 05:33:42;;;;;;;15.93;13.50;;;4.70;99.90;;;;;;5045482;28;20033;-73
2023/04/08 05:36:07;;;;;;;16.17;12.40;;;4.70;99.90;;;;;;5035956;28;20108;-73
2023/04/08 05:38:33;;;;;;;16.53;12.87;;;4.70;99.90;;;;;;5039233;28;20068;-73
2023/04/08 05:40:59;;;;;;;18.77;14.07;;;4.80;99.90;;;;;;5043797;28;20096;-73
2023/04/08 05:43:24;;;;;;;17.57;14.37;;;4.70;99.90;;;;;;5034599;28;20032;-73
2023/04/08 05:45:50;;;;;;;19.77;14.83;;;4.70;99.90;;;;;;5036992;28;20021;-73
2023/04/08 05:48:15;;;;;;;18.53;15.23;;;4.70;99.90;;;;;;5046765;28;20021;-73
2023/04/08 05:50:41;;;;;;;22.17;16.50;;;4.70;99.90;;;;;;5037036;28;20029;-73
2023/04/08 05:53:08;;;;;;;22.00;16.77;;;4.70;99.90;;;;;;5068635;28;20033;-73
2023/04/08 05:55:33;;;;;;;20.40;16.60;;;4.70;99.90;;;;;;5045984;28;20037;-73
2023/04/08 05:57:59;;;;;;;16.07;12.43;;;4.70;99.90;;;;;;5030408;28;20124;-73
2023/04/08 06:00:25;;;;;;;16.17;12.73;;;4.80;99.90;;;;;;5029753;28;20043;-73
2023/04/08 06:02:51;;;;;;;18.63;13.40;;;4.80;99.90;;;;;;5034904;28;20040;-73
2023/04/08 06:05:17;;;;;;;17.20;13.50;;;4.80;99.90;;;;;;5040929;28;20452;-73
2023/04/08 06:07:44;;;;;;;14.20;12.17;;;4.80;99.90;;;;;;5036182;28;20021;-73
2023/04/08 06:10:10;;;;;;;14.53;11.80;;;4.90;99.90;;;;;;5049676;28;20025;-73
2023/04/08 06:12:38;;;;;;;16.40;12.40;;;4.90;99.90;;;;;;5032479;28;20174;-73
2023/04/08 06:15:05;;;;;;;18.83;14.70;;;5.00;99.90;;;;;;5032031;28;20143;-73
2023/04/08 06:17:30;;;;;;;19.47;14.93;;;5.00;99.90;;;;;;5029596;28;20014;-73
2023/04/08 06:19:56;;;;;;;18.70;16.03;;;5.10;99.90;;;;;;5029876;28;20033;-73
2023/04/08 06:22:21;;;;;;;20.57;15.00;;;5.10;99.90;;;;;;5036116;28;20013;-72
2023/04/08 06:24:47;;;;;;;20.80;16.40;;;5.20;99.90;;;;;;5036599;28;20033;-73
2023/04/08 06:27:13;;;;;;;21.47;16.17;;;5.20;99.90;;;;;;5041652;28;20040;-73
2023/04/08 06:29:38;;;;;;;21.23;16.37;;;5.30;99.90;;;;;;5043420;28;20071;-73
2023/04/08 06:32:05;;;;;;;19.73;16.53;;;5.30;99.90;;;;;;5037470;28;20029;-73
2023/04/08 06:34:30;;;;;;;19.43;16.30;;;5.40;99.90;;;;;;5042737;28;20025;-73
2023/04/08 06:36:56;;;;;;;19.83;17.40;;;5.40;99.90;;;;;;5031193;28;20076;-73
2023/04/08 06:39:22;;;;;;;19.83;17.70;;;5.40;99.90;;;;;;5042734;28;20029;-73
2023/04/08 06:41:47;;;;;;;21.40;17.10;;;5.50;99.90;;;;;;5047196;28;20029;-73
2023/04/08 06:44:13;;;;;;;22.27;17.53;;;5.50;99.90;;;;;;5042629;28;20056;-73
2023/04/08 06:46:38;;;;;;;21.07;18.33;;;5.60;99.90;;;;;;5043038;28;20100;-73
2023/04/08 06:49:05;;;;;;;21.80;17.60;;;5.60;99.90;;;;;;5034225;28;20109;-73
2023/04/08 06:51:31;;;;;;;22.33;19.13;;;5.70;99.90;;;;;;5042555;28;20025;-73
2023/04/08 06:53:57;;;;;;;21.97;19.53;;;5.80;99.90;;;;;;5045627;28;20074;-73
2023/04/08 06:56:25;;;;;;;23.00;19.77;;;5.80;99.90;;;;;;5033735;28;20021;-74
2023/04/08 06:58:51;;;;;;;23.37;19.30;;;5.90;99.90;;;;;;5068495;28;20033;-73
2023/04/08 07:01:16;;;;;;;24.30;20.10;;;5.90;99.90;;;;;;5035514;28;20014;-73
2023/04/08 07:03:42;;;;;;;24.40;19.80;;;6.00;99.90;;;;;;5040595;28;20060;-73
2023/04/08 07:06:08;;;;;;;23.10;19.33;;;6.10;99.90;;;;;;5042929;28;20032;-74
2023/04/08 07:08:33;;;;;;;21.30;18.13;;;6.20;99.90;;;;;;5033554;28;20371;-73
2023/04/08 07:10:59;;;;;;;18.83;16.73;;;6.20;99.90;;;;;;5044249;28;20134;-73
2023/04/08 07:13:26;;;;;;;22.00;18.57;;;6.30;99.90;;;;;;5045728;28;20045;-74
2023/04/08 07:15:51;;;;;;;24.83;19.43;;;6.40;99.90;;;;;;5035780;28;20112;-74
2023/04/08 07:18:17;;;;;;;20.63;18.53;;;6.50;99.90;;;;;;5042690;28;20021;-74
2023/04/08 07:20:42;;;;;;;22.60;19.10;;;6.60;99.90;;;;;;5035094;28;20029;-74
2023/04/08 07:23:08;;;;;;;19.90;16.03;;;6.70;99.90;;;;;;5042358;28;20025;-74
2023/04/08 07:25:34;;;;;;;21.57;18.27;;;6.70;99.90;;;;;;5041871;28;20022;-74
2023/04/08 07:28:00;;;;;;;19.90;17.50;;;6.80;99.90;;;;;;5044035;28;20021;-74
2023/04/08 07:30:25;;;;;;;20.00;17.90;;;6.90;99.90;;;;;;5051680;28;20424;-74
2023/04/08 07:32:52;;;;;;;19.80;17.70;;;7.00;99.90;;;;;;5052974;28;20485;-74
2023/04/08 07:35:23;;;;;;;18.43;16.40;;;7.10;99.90;;;;;;5038999;28;20027;-73
2023/04/08 07:37:51;;;;;;;20.07;17.40;;;7.10;99.90;;;;;;5045942;28;20021;-74
2023/04/08 07:40:17;;;;;;;19.37;17.00;;;7.20;99.90;;;;;;5052456;28;20025;-74
2023/04/08 07:42:43;;;;;;;18.37;16.43;;;7.30;99.90;;;;;;5052109;28;20032;-74
2023/04/08 07:45:09;;;;;;;22.00;16.57;;;7.40;99.90;;;;;;5052489;28;20017;-74
2023/04/08 07:47:35;;;;;;;19.17;17.17;;;7.50;99.90;;;;;;5051297;28;20021;-75
2023/04/08 07:50:01;;;;;;;17.33;15.53;;;7.60;99.90;;;;;;5039428;28;20052;-75
2023/04/08 07:52:27;;;;;;;21.23;15.83;;;7.70;99.90;;;;;;5038075;28;20056;-75
2023/04/08 07:54:52;;;;;;;20.50;16.70;;;7.80;99.90;;;;;;5033373;28;20104;-75
2023/04/08 07:57:18;;;;;;;17.33;15.23;;;8.00;99.90;;;;;;5034667;28;20033;-75
2023/04/08 07:59:43;;;;;;;17.40;15.60;;;8.10;99.90;;;;;;5035477;28;20029;-75
2023/04/08 08:02:09;;;;;;;17.17;14.27;;;8.10;99.90;;;;;;5032024;28;20057;-77
2023/04/08 08:04:34;;;;;;;19.00;16.20;;;8.20;99.90;;;;;;5035593;28;20052;-74
2023/04/08 08:07:00;;;;;;;17.17;15.37;;;8.30;99.90;;;;;;5031338;28;20044;-75
2023/04/08 08:09:25;;;;;;;17.30;15.37;;;8.30;99.90;;;;;;5035539;28;20021;-74
2023/04/08 08:11:51;;;;;;;15.73;14.13;;;8.30;99.90;;;;;;5039774;28;20022;-75
2023/04/08 08:14:17;;;;;;;16.10;14.40;;;8.40;99.90;;;;;;5044526;28;20033;-75
2023/04/08 08:16:43;;;;;;;16.83;15.00;;;8.50;99.90;;;;;;5051049;28;20017;-74
2023/04/08 08:19:09;;;;;;;16.03;14.27;;;8.60;99.90;;;;;;5052307;28;20020;-75
2023/04/08 08:21:38;;;;;;;16.20;14.03;;;8.70;99.90;;;;;;5050776;28;20021;-75
2023/04/08 08:24:04;;;;;;;16.43;13.07;;;8.70;99.90;;;;;;5051692;28;20066;-74
2023/04/08 08:26:29;;;;;;;14.50;13.00;;;8.80;99.90;;;;;;5030770;28;20022;-75
2023/04/08 08:28:55;;;;;;;14.97;13.53;;;8.90;99.90;;;;;;5038130;28;20056;-75
2023/04/08 08:31:20;;;;;;;15.17;12.57;;;9.00;99.90;;;;;;5046417;28;20028;-75
2023/04/08 08:33:46;;;;;;;16.37;14.57;;;9.00;99.90;;;;;;5044892;28;20018;-74
2023/04/08 08:36:12;;;;;;;14.40;12.83;;;9.10;99.90;;;;;;5032564;28;20028;-75
2023/04/08 08:38:37;;;;;;;14.37;12.80;;;9.20;99.90;;;;;;5031245;28;20462;-75
2023/04/08 08:41:03;;;;;;;16.10;13.53;;;9.30;99.90;;;;;;5041779;28;20024;-75
2023/04/08 08:43:32;;;;;;;13.47;12.07;;;9.30;99.90;;;;;;5032207;28;20013;-75
2023/04/08 08:45:58;;;;;;;13.43;12.13;;;9.40;99.90;;;;;;5032554;28;20100;-75
2023/04/08 08:48:24;;;;;;;15.60;12.60;;;9.40;99.90;;;;;;5031982;28;20049;-75
2023/04/08 08:50:50;;;;;;;16.37;12.63;;;9.40;99.90;;;;;;5044675;28;20029;-75
2023/04/08 08:53:15;;;;;;;14.23;12.80;;;9.50;99.90;;;;;;5037934;28;20060;-74
2023/04/08 08:55:41;;;;;;;13.77;12.27;;;9.50;99.90;;;;;;5038059;28;20549;-75
2023/04/08 08:58:07;;;;;;;12.98;11.68;;;9.60;99.90;;;;;;5044047;28;20126;-74
2023/04/08 09:00:33;;;;;;;14.10;11.98;;;9.70;99.90;;;;;;5044930;28;20071;-74
2023/04/08 09:03:20;;;;;;;17.73;13.10;;;9.80;99.90;;;;;;5051032;28;20049;-75
2023/04/08 09:05:57;;;;;;;15.75;13.00;;;9.90;99.90;;;;;;5035157;28;20540;-75
2023/04/08 09:08:30;;;;;;;13.07;11.82;;;9.90;99.90;;;;;;5037146;28;20087;-74
2023/04/08 09:11:17;;;;;;;15.00;12.90;;;10.00;99.90;;;;;;5042054;28;20048;-74
2023/04/08 09:13:43;;;;;;;13.15;11.75;;;10.10;99.90;;;;;;5044868;28;20029;-74
2023/04/08 09:16:15;;;;;;;12.90;11.52;;;10.20;99.90;;;;;;5048650;28;20492;-74
2023/04/08 09:18:44;;;;;;;16.60;14.48;;;10.30;99.90;;;;;;5048947;28;20013;-75
2023/04/08 09:21:11;;;;;;;14.15;12.65;;;10.40;99.90;;;;;;5050520;28;20036;-74
2023/04/08 09:23:47;;;;;;;13.00;11.65;;;10.40;99.90;;;;;;5049479;28;20118;-74
2023/04/08 09:26:15;;;;;;;12.07;10.98;;;10.50;99.90;;;;;;5036355;28;20028;-74
2023/04/08 09:28:41;;;;;;;14.57;11.98;;;10.60;99.90;;;;;;5042903;28;20036;-74
2023/04/08 09:31:24;;;;;;;12.65;11.18;;;10.70;99.90;;;;;;5050878;28;20021;-74
2023/04/08 09:33:53;;;;;;;11.55;10.40;;;10.80;99.90;;;;;;5026451;28;20064;-74
2023/04/08 09:36:19;;;;;;;11.48;10.38;;;10.90;99.90;;;;;;5050028;28;20103;-75
2023/04/08 09:38:45;;;;;;;12.13;10.75;;;10.90;99.90;;;;;;5049923;28;20100;-74
2023/04/08 09:41:15;;;;;;;12.48;11.20;;;10.90;99.90;;;;;;5050020;28;20027;-74
2023/04/08 09:43:50;;;;;;;12.60;11.30;;;10.90;99.90;;;;;;5047889;28;20087;-74
2023/04/08 09:46:20;;;;;;;13.32;11.80;;;10.90;99.90;;;;;;5040888;28;20062;-74
2023/04/08 09:48:55;;;;;;;16.13;11.57;;;11.00;99.90;;;;;;5046203;28;20075;-74
2023/04/08 09:51:22;;;;;;;15.48;11.10;;;11.10;99.90;;;;;;5043545;28;20021;-74
2023/04/08 09:53:58;;;;;;;12.07;10.88;;;11.20;99.90;;;;;;5045789;28;20108;-74
2023/04/08 09:56:25;;;;;;;17.38;13.00;;;11.30;99.90;;;;;;5047071;28;20203;-74
2023/04/08 09:58:57;;;;;;;13.93;12.25;;;11.40;99.90;;;;;;5044643;28;20386;-74
2023/04/08 10:01:36;;;;;;;15.68;13.95;;;11.40;99.90;;;;;;5029797;28;20478;-74
2023/04/08 10:04:06;;;;;;;16.23;13.10;;;11.50;99.90;;;;;;5034739;28;20501;-74
2023/04/08 10:06:33;;;;;;;13.57;12.18;;;11.60;99.90;;;;;;5032994;28;20478;-74
2023/04/08 10:09:00;;;;;;;13.10;11.43;;;11.70;99.90;;;;;;5034608;28;20033;-73
2023/04/08 10:11:26;;;;;;;12.77;11.43;;;11.70;99.90;;;;;;5033573;28;20021;-74
2023/04/08 10:13:52;;;;;;;12.95;11.48;;;11.70;99.90;;;;;;5037158;28;20546;-74
2023/04/08 10:16:26;;;;;;;12.43;11.20;;;11.70;99.90;;;;;;5033883;28;20386;-74
2023/04/08 10:18:55;;;;;;;12.52;11.35;;;11.80;99.90;;;;;;5036746;28;20104;-74
2023/04/08 10:21:47;;;;;;;11.57;10.45;;;11.90;99.90;;;;;;5025586;28;20055;-73
2023/04/08 10:24:13;;;;;;;11.55;9.65;;;12.00;99.90;;;;;;5030524;28;20052;-75
2023/04/08 10:26:42;;;;;;;11.45;10.25;;;12.00;99.90;;;;;;5035369;28;20057;-75
2023/04/08 10:29:31;;;;;;;13.07;11.10;;;12.10;99.90;;;;;;5035961;28;20025;-75
2023/04/08 10:31:57;;;;;;;11.43;10.23;;;12.10;99.90;;;;;;5035323;28;20043;-74
2023/04/08 10:34:25;;;;;;;11.77;10.60;;;12.10;99.90;;;;;;5037745;28;20025;-75
2023/04/08 10:36:51;;;;;;;12.85;11.48;;;12.30;99.90;;;;;;5029519;28;20454;-75
2023/04/08 10:39:17;;;;;;;10.98;9.88;;;12.40;99.90;;;;;;5029473;28;20096;-75
2023/04/08 10:41:47;;;;;;;11.15;10.05;;;12.50;99.90;;;;;;5029852;28;20493;-75
2023/04/08 10:44:20;;;;;;;11.98;9.55;;;12.50;99.90;;;;;;5029608;28;20021;-74
2023/04/08 10:46:46;;;;;;;12.20;10.87;;;12.60;99.90;;;;;;5037314;28;20020;-75
2023/04/08 10:49:12;;;;;;;10.23;9.23;;;12.80;99.40;;;;;;5044329;28;20337;-75
2023/04/08 10:51:39;;;;;;;10.40;9.23;;;12.90;99.60;;;;;;5046575;28;20443;-75
2023/04/08 10:54:06;;;;;;;12.68;10.75;;;13.10;99.80;;;;;;5044736;28;20105;-75
2023/04/08 10:56:32;;;;;;;10.82;9.73;;;13.30;99.90;;;;;;5045849;28;20529;-75
2023/04/08 10:58:58;;;;;;;12.80;11.50;;;13.50;99.80;;;;;;5028509;28;20108;-75
2023/04/08 11:01:24;;;;;;;11.57;10.38;;;13.60;99.10;;;;;;5043677;28;20021;-75
2023/04/08 11:03:50;;;;;;;13.32;10.85;;;13.80;99.00;;;;;;5040518;28;20037;-75
2023/04/08 11:06:19;;;;;;;11.55;10.13;;;13.90;97.70;;;;;;5043639;28;20025;-74
2023/04/08 11:08:46;;;;;;;11.73;9.50;;;14.00;96.30;;;;;;5040836;28;20489;-74
2023/04/08 11:11:11;;;;;;;10.27;9.25;;;14.20;96.60;;;;;;5043844;28;20025;-75
2023/04/08 11:13:40;;;;;;;9.98;8.90;;;14.30;96.50;;;;;;5042591;28;20503;-76
2023/04/08 11:16:10;;;;;;;10.90;9.80;;;14.40;95.80;;;;;;5043962;28;20014;-76
2023/04/08 11:18:38;;;;;;;9.25;8.18;;;14.40;95.10;;;;;;5048065;28;20025;-76
2023/04/08 11:21:08;;;;;;;10.00;9.00;;;14.50;94.60;;;;;;5050792;28;20025;-76
2023/04/08 11:23:35;;;;;;;9.98;8.85;;;14.50;94.60;;;;;;5045819;28;20039;-75
2023/04/08 11:26:01;;;;;;;10.63;9.13;;;14.50;94.90;;;;;;5032176;28;20029;-75
2023/04/08 11:28:27;;;;;;;11.50;10.30;;;14.50;94.50;;;;;;5041037;28;20163;-76
2023/04/08 11:30:54;;;;;;;10.93;8.98;;;14.50;94.50;;;;;;5051050;28;20090;-75
2023/04/08 11:33:20;;;;;;;10.05;9.02;;;14.60;93.70;;;;;;5042796;28;20024;-75
2023/04/08 11:35:50;;;;;;;13.82;10.00;;;14.50;93.80;;;;;;5052642;28;20044;-75
2023/04/08 11:38:15;;;;;;;11.80;10.15;;;14.60;93.70;;;;;;5040003;28;20497;-75
2023/04/08 11:40:55;;;;;;;10.55;9.52;;;14.60;93.90;;;;;;5051267;28;20025;-75
2023/04/08 11:43:21;;;;;;;10.07;8.77;;;14.80;94.30;;;;;;5051902;28;20096;-75
2023/04/08 11:45:46;;;;;;;10.15;9.20;;;15.00;94.20;;;;;;5052311;28;20100;-75
2023/04/08 11:48:14;;;;;;;11.45;9.27;;;15.20;93.60;;;;;;5050468;28;20086;-75
2023/04/08 11:50:40;;;;;;;10.20;9.20;;;15.20;92.60;;;;;;5052201;28;20385;-75
2023/04/08 11:53:24;;;;;;;9.63;8.50;;;15.20;92.40;;;;;;5050172;28;20023;-75
2023/04/08 11:55:50;;;;;;;10.23;8.57;;;15.30;92.40;;;;;;5047728;28;20022;-75
2023/04/08 11:58:16;;;;;;;10.90;8.15;;;15.30;91.10;;;;;;5049719;28;20025;-75
2023/04/08 12:00:43;;;;;;;11.15;7.85;;;15.20;88.30;;;;;;5046443;28;20110;-75
2023/04/08 12:03:09;;;;;;;8.95;8.05;;;15.20;88.40;;;;;;5048300;28;20056;-75
2023/04/08 12:05:35;;;;;;;10.50;8.10;;;15.20;88.30;;;;;;5046086;28;20067;-75
2023/04/08 12:08:01;;;;;;;9.23;7.25;;;15.10;88.00;;;;;;5037815;28;20026;-76
2023/04/08 12:10:27;;;;;;;8.40;6.93;;;15.00;87.50;;;;;;5044061;28;20025;-74
2023/04/08 12:12:52;;;;;;;8.35;7.55;;;15.00;87.10;;;;;;5047009;28;20068;-75
2023/04/08 12:15:18;;;;;;;7.72;6.43;;;14.90;87.10;;;;;;5044593;28;20099;-75
2023/04/08 12:17:44;;;;;;;7.90;7.10;;;15.00;86.10;;;;;;5042764;28;20033;-75
2023/04/08 12:20:10;;;;;;;9.52;6.45;;;15.00;86.40;;;;;;5040659;28;20164;-75
2023/04/08 12:22:36;;;;;;;8.00;6.50;;;15.00;81.50;;;;;;5028963;28;20048;-75
2023/04/08 12:25:02;;;;;;;6.07;5.28;;;14.90;79.80;;;;;;5039311;28;20030;-76
2023/04/08 12:27:28;;;;;;;7.22;6.30;;;15.00;79.40;;;;;;5029946;28;20017;-75
2023/04/08 12:29:54;;;;;;;8.70;7.28;;;15.10;78.60;;;;;;5033176;28;20037;-74
2023/04/08 12:32:20;;;;;;;7.85;7.05;;;15.00;78.60;;;;;;5021692;28;20033;-75
2023/04/08 12:34:46;;;;;;;9.20;8.27;;;15.00;79.90;;;;;;5034503;28;20023;-75